sensor_id;sensor_type;location;lat;lon;timestamp;P1;durP1;ratioP1;P2;durP2;ratioP2
25127;SDS011;13107;51.304;6.866;2024-02-21T00:02:12;22.62;;;9.30;;
25127;SDS011;13107;51.304;6.866;2024-02-21T00:06:13;27.08;;;9.30;;
25127;SDS011;13107;51.304;6.866;2024-02-21T00:10:15;17.83;;;8.75;;
25127;SDS011;13107;51.304;6.866;2024-02-21T00:14:17;24.65;;;8.90;;
25127;SDS011;13107;51.304;6.866;2024-02-21T00:18:19;21.27;;;8.57;;
25127;SDS011;13107;51.304;6.866;2024-02-21T00:22:21;22.75;;;9.23;;
25127;SDS011;13107;51.304;6.866;2024-02-21T00:26:23;18.67;;;8.55;;
25127;SDS011;13107;51.304;6.866;2024-02-21T00:30:24;22.02;;;8.68;;
25127;SDS011;13107;51.304;6.866;2024-02-21T00:34:26;24.00;;;9.23;;
25127;SDS011;13107;51.304;6.866;2024-02-21T00:38:28;22.98;;;8.15;;
25127;SDS011;13107;51.304;6.866;2024-02-21T00:42:30;21.70;;;8.82;;
25127;SDS011;13107;51.304;6.866;2024-02-21T00:46:32;24.10;;;9.23;;
25127;SDS011;13107;51.304;6.866;2024-02-21T00:50:34;23.38;;;9.75;;
25127;SDS011;13107;51.304;6.866;2024-02-21T00:54:35;24.80;;;8.90;;
25127;SDS011;13107;51.304;6.866;2024-02-21T00:58:57;22.02;;;9.07;;
25127;SDS011;13107;51.304;6.866;2024-02-21T01:02:59;18.10;;;9.05;;
25127;SDS011;13107;51.304;6.866;2024-02-21T01:07:00;18.77;;;8.88;;
25127;SDS011;13107;51.304;6.866;2024-02-21T01:11:02;19.30;;;8.98;;
25127;SDS011;13107;51.304;6.866;2024-02-21T01:15:04;19.23;;;8.70;;
25127;SDS011;13107;51.304;6.866;2024-02-21T01:19:06;22.55;;;9.50;;
25127;SDS011;13107;51.304;6.866;2024-02-21T01:23:08;22.45;;;9.35;;
25127;SDS011;13107;51.304;6.866;2024-02-21T01:27:10;26.58;;;10.45;;
25127;SDS011;13107;51.304;6.866;2024-02-21T01:31:12;24.70;;;8.80;;
25127;SDS011;13107;51.304;6.866;2024-02-21T01:35:14;18.23;;;8.13;;
25127;SDS011;13107;51.304;6.866;2024-02-21T01:39:16;22.08;;;8.85;;
25127;SDS011;13107;51.304;6.866;2024-02-21T01:43:19;22.02;;;8.85;;
25127;SDS011;13107;51.304;6.866;2024-02-21T01:47:21;24.10;;;8.50;;
25127;SDS011;13107;51.304;6.866;2024-02-21T01:51:24;19.42;;;8.65;;
25127;SDS011;13107;51.304;6.866;2024-02-21T01:55:26;22.42;;;8.60;;
25127;SDS011;13107;51.304;6.866;2024-02-21T01:59:28;28.15;;;8.98;;
25127;SDS011;13107;51.304;6.866;2024-02-21T02:03:30;21.58;;;8.75;;
25127;SDS011;13107;51.304;6.866;2024-02-21T02:07:32;23.50;;;8.40;;
25127;SDS011;13107;51.304;6.866;2024-02-21T02:11:34;20.42;;;8.60;;
25127;SDS011;13107;51.304;6.866;2024-02-21T02:15:37;19.30;;;8.95;;
25127;SDS011;13107;51.304;6.866;2024-02-21T02:19:43;20.20;;;8.17;;
25127;SDS011;13107;51.304;6.866;2024-02-21T02:23:45;26.50;;;9.25;;
25127;SDS011;13107;51.304;6.866;2024-02-21T02:27:46;15.65;;;7.47;;
25127;SDS011;13107;51.304;6.866;2024-02-21T02:31:49;17.35;;;7.95;;
25127;SDS011;13107;51.304;6.866;2024-02-21T02:35:50;18.08;;;7.35;;
25127;SDS011;13107;51.304;6.866;2024-02-21T02:39:52;21.90;;;8.32;;
25127;SDS011;13107;51.304;6.866;2024-02-21T02:43:54;15.98;;;7.43;;
25127;SDS011;13107;51.304;6.866;2024-02-21T02:47:56;16.65;;;7.00;;
25127;SDS011;13107;51.304;6.866;2024-02-21T02:51:58;20.70;;;7.93;;
25127;SDS011;13107;51.304;6.866;2024-02-21T02:56:00;20.90;;;7.15;;
25127;SDS011;13107;51.304;6.866;2024-02-21T03:00:03;24.27;;;8.07;;
25127;SDS011;13107;51.304;6.866;2024-02-21T03:04:05;18.67;;;7.10;;
25127;SDS011;13107;51.304;6.866;2024-02-21T03:08:07;13.85;;;7.97;;
25127;SDS011;13107;51.304;6.866;2024-02-21T03:12:09;16.55;;;6.62;;
25127;SDS011;13107;51.304;6.866;2024-02-21T03:16:11;16.25;;;7.45;;
25127;SDS011;13107;51.304;6.866;2024-02-21T03:20:13;21.73;;;8.02;;
25127;SDS011;13107;51.304;6.866;2024-02-21T03:24:15;15.32;;;7.60;;
25127;SDS011;13107;51.304;6.866;2024-02-21T03:28:17;18.95;;;7.40;;
25127;SDS011;13107;51.304;6.866;2024-02-21T03:32:19;20.20;;;8.45;;
25127;SDS011;13107;51.304;6.866;2024-02-21T03:36:21;17.58;;;7.25;;
25127;SDS011;13107;51.304;6.866;2024-02-21T03:40:23;21.50;;;8.43;;
25127;SDS011;13107;51.304;6.866;2024-02-21T03:44:24;16.40;;;7.57;;
25127;SDS011;13107;51.304;6.866;2024-02-21T03:48:26;21.27;;;7.22;;
25127;SDS011;13107;51.304;6.866;2024-02-21T03:52:28;21.15;;;6.82;;
25127;SDS011;13107;51.304;6.866;2024-02-21T03:56:30;19.85;;;6.93;;
25127;SDS011;13107;51.304;6.866;2024-02-21T04:00:31;17.00;;;6.93;;
25127;SDS011;13107;51.304;6.866;2024-02-21T04:04:33;20.25;;;7.10;;
25127;SDS011;13107;51.304;6.866;2024-02-21T04:08:38;14.90;;;6.10;;
25127;SDS011;13107;51.304;6.866;2024-02-21T04:12:40;16.15;;;7.10;;
25127;SDS011;13107;51.304;6.866;2024-02-21T04:16:42;16.83;;;6.32;;
25127;SDS011;13107;51.304;6.866;2024-02-21T04:20:44;19.62;;;7.07;;
25127;SDS011;13107;51.304;6.866;2024-02-21T04:24:46;21.12;;;6.65;;
25127;SDS011;13107;51.304;6.866;2024-02-21T04:28:47;19.05;;;6.87;;
25127;SDS011;13107;51.304;6.866;2024-02-21T04:32:49;18.60;;;6.95;;
25127;SDS011;13107;51.304;6.866;2024-02-21T04:36:51;14.77;;;6.15;;
25127;SDS011;13107;51.304;6.866;2024-02-21T04:40:53;17.87;;;6.75;;
25127;SDS011;13107;51.304;6.866;2024-02-21T04:44:55;14.43;;;6.78;;
25127;SDS011;13107;51.304;6.866;2024-02-21T04:48:56;18.30;;;5.85;;
25127;SDS011;13107;51.304;6.866;2024-02-21T04:52:58;15.73;;;5.90;;
25127;SDS011;13107;51.304;6.866;2024-02-21T04:57:00;13.95;;;5.50;;
25127;SDS011;13107;51.304;6.866;2024-02-21T05:01:02;20.00;;;6.22;;
25127;SDS011;13107;51.304;6.866;2024-02-21T05:05:04;17.87;;;5.72;;
25127;SDS011;13107;51.304;6.866;2024-02-21T05:09:06;11.98;;;5.45;;
25127;SDS011;13107;51.304;6.866;2024-02-21T05:13:09;15.10;;;5.57;;
25127;SDS011;13107;51.304;6.866;2024-02-21T05:17:11;15.32;;;5.85;;
25127;SDS011;13107;51.304;6.866;2024-02-21T05:21:13;11.05;;;5.05;;
25127;SDS011;13107;51.304;6.866;2024-02-21T05:25:15;14.80;;;5.87;;
25127;SDS011;13107;51.304;6.866;2024-02-21T05:29:17;17.17;;;6.22;;
25127;SDS011;13107;51.304;6.866;2024-02-21T05:33:19;16.33;;;5.25;;
25127;SDS011;13107;51.304;6.866;2024-02-21T05:37:23;12.37;;;5.68;;
25127;SDS011;13107;51.304;6.866;2024-02-21T05:41:25;15.05;;;5.80;;
25127;SDS011;13107;51.304;6.866;2024-02-21T05:45:26;14.85;;;5.35;;
25127;SDS011;13107;51.304;6.866;2024-02-21T05:49:28;18.95;;;5.05;;
25127;SDS011;13107;51.304;6.866;2024-02-21T05:53:30;14.70;;;5.70;;
25127;SDS011;13107;51.304;6.866;2024-02-21T05:57:32;11.95;;;4.78;;
25127;SDS011;13107;51.304;6.866;2024-02-21T06:01:33;10.35;;;4.15;;
25127;SDS011;13107;51.304;6.866;2024-02-21T06:05:36;14.57;;;5.20;;
25127;SDS011;13107;51.304;6.866;2024-02-21T06:09:39;15.85;;;5.12;;
25127;SDS011;13107;51.304;6.866;2024-02-21T06:13:41;15.98;;;5.07;;
25127;SDS011;13107;51.304;6.866;2024-02-21T06:17:43;11.82;;;4.47;;
25127;SDS011;13107;51.304;6.866;2024-02-21T06:21:45;10.48;;;3.87;;
25127;SDS011;13107;51.304;6.866;2024-02-21T06:25:46;13.00;;;4.45;;
25127;SDS011;13107;51.304;6.866;2024-02-21T06:29:49;12.20;;;5.25;;
25127;SDS011;13107;51.304;6.866;2024-02-21T06:33:51;14.52;;;4.50;;
25127;SDS011;13107;51.304;6.866;2024-02-21T06:37:52;12.90;;;4.93;;
25127;SDS011;13107;51.304;6.866;2024-02-21T06:41:54;12.07;;;4.22;;
25127;SDS011;13107;51.304;6.866;2024-02-21T06:45:59;12.15;;;4.93;;
25127;SDS011;13107;51.304;6.866;2024-02-21T06:50:01;14.52;;;4.90;;
25127;SDS011;13107;51.304;6.866;2024-02-21T06:54:03;10.40;;;4.40;;
25127;SDS011;13107;51.304;6.866;2024-02-21T06:58:06;13.00;;;4.43;;
25127;SDS011;13107;51.304;6.866;2024-02-21T07:02:13;11.52;;;4.32;;
25127;SDS011;13107;51.304;6.866;2024-02-21T07:06:14;13.93;;;5.28;;
25127;SDS011;13107;51.304;6.866;2024-02-21T07:10:16;11.23;;;4.30;;
25127;SDS011;13107;51.304;6.866;2024-02-21T07:14:18;9.82;;;4.60;;
25127;SDS011;13107;51.304;6.866;2024-02-21T07:18:20;10.43;;;4.47;;
25127;SDS011;13107;51.304;6.866;2024-02-21T07:22:22;12.63;;;4.40;;
25127;SDS011;13107;51.304;6.866;2024-02-21T07:26:24;12.50;;;4.57;;
25127;SDS011;13107;51.304;6.866;2024-02-21T07:30:26;13.27;;;4.12;;
25127;SDS011;13107;51.304;6.866;2024-02-21T07:34:27;12.70;;;3.75;;
25127;SDS011;13107;51.304;6.866;2024-02-21T07:38:30;7.60;;;3.83;;
25127;SDS011;13107;51.304;6.866;2024-02-21T07:42:32;8.38;;;4.03;;
25127;SDS011;13107;51.304;6.866;2024-02-21T07:46:34;10.13;;;4.25;;
25127;SDS011;13107;51.304;6.866;2024-02-21T07:50:36;11.65;;;3.75;;
25127;SDS011;13107;51.304;6.866;2024-02-21T07:54:38;9.82;;;3.30;;
25127;SDS011;13107;51.304;6.866;2024-02-21T07:58:40;7.30;;;3.15;;
25127;SDS011;13107;51.304;6.866;2024-02-21T08:02:42;12.32;;;3.55;;
25127;SDS011;13107;51.304;6.866;2024-02-21T08:06:45;13.68;;;3.70;;
25127;SDS011;13107;51.304;6.866;2024-02-21T08:10:49;12.95;;;3.30;;
25127;SDS011;13107;51.304;6.866;2024-02-21T08:14:51;9.35;;;3.55;;
25127;SDS011;13107;51.304;6.866;2024-02-21T08:18:53;12.10;;;3.92;;
25127;SDS011;13107;51.304;6.866;2024-02-21T08:22:55;14.77;;;4.00;;
25127;SDS011;13107;51.304;6.866;2024-02-21T08:26:57;10.95;;;3.80;;
25127;SDS011;13107;51.304;6.866;2024-02-21T08:30:59;11.85;;;3.70;;
25127;SDS011;13107;51.304;6.866;2024-02-21T08:35:00;13.02;;;3.90;;
25127;SDS011;13107;51.304;6.866;2024-02-21T08:39:03;8.98;;;3.00;;
25127;SDS011;13107;51.304;6.866;2024-02-21T08:43:05;11.15;;;3.60;;
25127;SDS011;13107;51.304;6.866;2024-02-21T08:47:07;11.10;;;4.68;;
25127;SDS011;13107;51.304;6.866;2024-02-21T08:51:11;12.75;;;4.28;;
25127;SDS011;13107;51.304;6.866;2024-02-21T08:55:13;15.13;;;4.28;;
25127;SDS011;13107;51.304;6.866;2024-02-21T08:59:15;12.50;;;4.43;;
25127;SDS011;13107;51.304;6.866;2024-02-21T09:03:17;11.65;;;4.05;;
25127;SDS011;13107;51.304;6.866;2024-02-21T09:07:21;10.35;;;4.00;;
25127;SDS011;13107;51.304;6.866;2024-02-21T09:11:22;11.50;;;4.03;;
25127;SDS011;13107;51.304;6.866;2024-02-21T09:15:24;10.27;;;4.20;;
25127;SDS011;13107;51.304;6.866;2024-02-21T09:19:26;10.77;;;4.18;;
25127;SDS011;13107;51.304;6.866;2024-02-21T09:23:28;12.23;;;4.20;;
25127;SDS011;13107;51.304;6.866;2024-02-21T09:27:30;14.45;;;3.95;;
25127;SDS011;13107;51.304;6.866;2024-02-21T09:31:31;10.48;;;3.75;;
25127;SDS011;13107;51.304;6.866;2024-02-21T09:35:33;15.23;;;3.83;;
25127;SDS011;13107;51.304;6.866;2024-02-21T09:39:35;13.40;;;4.22;;
25127;SDS011;13107;51.304;6.866;2024-02-21T09:43:37;15.73;;;5.68;;
25127;SDS011;13107;51.304;6.866;2024-02-21T09:52:22;12.10;;;6.37;;
25127;SDS011;13107;51.304;6.866;2024-02-21T09:56:25;10.05;;;5.03;;
25127;SDS011;13107;51.304;6.866;2024-02-21T10:00:27;9.73;;;3.78;;
25127;SDS011;13107;51.304;6.866;2024-02-21T10:04:29;11.02;;;3.12;;
25127;SDS011;13107;51.304;6.866;2024-02-21T10:08:32;8.10;;;4.00;;
25127;SDS011;13107;51.304;6.866;2024-02-21T10:12:34;8.68;;;4.22;;
25127;SDS011;13107;51.304;6.866;2024-02-21T10:16:35;10.05;;;3.50;;
25127;SDS011;13107;51.304;6.866;2024-02-21T10:20:38;5.87;;;3.33;;
25127;SDS011;13107;51.304;6.866;2024-02-21T10:24:41;8.75;;;3.70;;
25127;SDS011;13107;51.304;6.866;2024-02-21T10:28:43;9.02;;;3.62;;
25127;SDS011;13107;51.304;6.866;2024-02-21T10:32:53;7.60;;;2.97;;
25127;SDS011;13107;51.304;6.866;2024-02-21T10:37:00;5.57;;;2.70;;
25127;SDS011;13107;51.304;6.866;2024-02-21T10:41:05;8.18;;;2.97;;
25127;SDS011;13107;51.304;6.866;2024-02-21T10:45:07;9.93;;;3.00;;
25127;SDS011;13107;51.304;6.866;2024-02-21T10:53:20;9.15;;;2.30;;
25127;SDS011;13107;51.304;6.866;2024-02-21T10:57:41;5.18;;;2.28;;
25127;SDS011;13107;51.304;6.866;2024-02-21T11:01:44;8.85;;;2.37;;
25127;SDS011;13107;51.304;6.866;2024-02-21T11:05:46;10.20;;;2.60;;
25127;SDS011;13107;51.304;6.866;2024-02-21T11:09:52;10.20;;;2.85;;
25127;SDS011;13107;51.304;6.866;2024-02-21T11:18:11;9.82;;;2.75;;
25127;SDS011;13107;51.304;6.866;2024-02-21T11:22:23;11.75;;;2.90;;
25127;SDS011;13107;51.304;6.866;2024-02-21T11:26:30;7.53;;;3.03;;
25127;SDS011;13107;51.304;6.866;2024-02-21T11:30:36;6.28;;;2.92;;
25127;SDS011;13107;51.304;6.866;2024-02-21T11:34:39;5.78;;;2.83;;
25127;SDS011;13107;51.304;6.866;2024-02-21T11:38:41;7.53;;;3.00;;
25127;SDS011;13107;51.304;6.866;2024-02-21T11:42:43;6.80;;;2.67;;
25127;SDS011;13107;51.304;6.866;2024-02-21T11:46:45;8.85;;;2.67;;
25127;SDS011;13107;51.304;6.866;2024-02-21T11:50:54;10.68;;;2.62;;
25127;SDS011;13107;51.304;6.866;2024-02-21T11:54:56;8.40;;;2.78;;
25127;SDS011;13107;51.304;6.866;2024-02-21T11:59:05;11.05;;;2.78;;
25127;SDS011;13107;51.304;6.866;2024-02-21T12:03:07;7.85;;;2.62;;
25127;SDS011;13107;51.304;6.866;2024-02-21T12:07:10;8.57;;;2.42;;
25127;SDS011;13107;51.304;6.866;2024-02-21T12:11:16;9.70;;;2.47;;
25127;SDS011;13107;51.304;6.866;2024-02-21T12:15:19;9.02;;;2.40;;
25127;SDS011;13107;51.304;6.866;2024-02-21T12:19:21;10.07;;;2.97;;
25127;SDS011;13107;51.304;6.866;2024-02-21T12:23:26;10.25;;;2.37;;
25127;SDS011;13107;51.304;6.866;2024-02-21T12:27:28;8.98;;;3.00;;
25127;SDS011;13107;51.304;6.866;2024-02-21T12:31:31;9.00;;;2.22;;
25127;SDS011;13107;51.304;6.866;2024-02-21T12:35:33;7.30;;;2.08;;
25127;SDS011;13107;51.304;6.866;2024-02-21T12:39:35;8.15;;;2.00;;
25127;SDS011;13107;51.304;6.866;2024-02-21T12:43:39;10.82;;;2.05;;
25127;SDS011;13107;51.304;6.866;2024-02-21T12:47:41;11.48;;;2.25;;
25127;SDS011;13107;51.304;6.866;2024-02-21T12:51:43;8.02;;;2.28;;
25127;SDS011;13107;51.304;6.866;2024-02-21T12:55:50;9.35;;;2.28;;
25127;SDS011;13107;51.304;6.866;2024-02-21T12:59:52;7.87;;;2.00;;
25127;SDS011;13107;51.304;6.866;2024-02-21T13:03:54;8.13;;;2.05;;
25127;SDS011;13107;51.304;6.866;2024-02-21T13:08:00;7.65;;;2.05;;
25127;SDS011;13107;51.304;6.866;2024-02-21T13:12:02;9.30;;;1.87;;
25127;SDS011;13107;51.304;6.866;2024-02-21T13:16:04;5.18;;;2.00;;
25127;SDS011;13107;51.304;6.866;2024-02-21T13:20:06;6.80;;;2.25;;
25127;SDS011;13107;51.304;6.866;2024-02-21T13:24:09;4.47;;;2.05;;
25127;SDS011;13107;51.304;6.866;2024-02-21T13:28:11;8.75;;;1.70;;
25127;SDS011;13107;51.304;6.866;2024-02-21T13:32:14;7.12;;;2.05;;
25127;SDS011;13107;51.304;6.866;2024-02-21T13:36:17;7.12;;;2.00;;
25127;SDS011;13107;51.304;6.866;2024-02-21T13:40:19;4.15;;;1.75;;
25127;SDS011;13107;51.304;6.866;2024-02-21T13:44:21;6.82;;;2.10;;
25127;SDS011;13107;51.304;6.866;2024-02-21T13:48:22;9.02;;;2.00;;
25127;SDS011;13107;51.304;6.866;2024-02-21T13:52:24;6.78;;;2.00;;
25127;SDS011;13107;51.304;6.866;2024-02-21T13:56:29;8.77;;;2.12;;
25127;SDS011;13107;51.304;6.866;2024-02-21T14:00:32;6.87;;;2.10;;
25127;SDS011;13107;51.304;6.866;2024-02-21T14:04:37;7.15;;;2.95;;
25127;SDS011;13107;51.304;6.866;2024-02-21T14:08:39;6.82;;;2.20;;
25127;SDS011;13107;51.304;6.866;2024-02-21T14:12:40;6.20;;;2.12;;
25127;SDS011;13107;51.304;6.866;2024-02-21T14:16:42;8.18;;;2.15;;
25127;SDS011;13107;51.304;6.866;2024-02-21T14:20:44;5.93;;;2.00;;
25127;SDS011;13107;51.304;6.866;2024-02-21T14:24:48;4.47;;;2.10;;
25127;SDS011;13107;51.304;6.866;2024-02-21T14:28:49;6.70;;;2.28;;
25127;SDS011;13107;51.304;6.866;2024-02-21T14:32:51;6.00;;;2.42;;
25127;SDS011;13107;51.304;6.866;2024-02-21T14:36:53;9.07;;;2.25;;
25127;SDS011;13107;51.304;6.866;2024-02-21T14:40:55;10.85;;;2.35;;
25127;SDS011;13107;51.304;6.866;2024-02-21T14:44:57;6.90;;;1.95;;
25127;SDS011;13107;51.304;6.866;2024-02-21T14:49:05;6.62;;;2.00;;
25127;SDS011;13107;51.304;6.866;2024-02-21T14:53:07;4.78;;;2.15;;
25127;SDS011;13107;51.304;6.866;2024-02-21T14:57:09;10.18;;;2.47;;
25127;SDS011;13107;51.304;6.866;2024-02-21T15:01:11;7.28;;;2.03;;
25127;SDS011;13107;51.304;6.866;2024-02-21T15:05:14;8.75;;;2.03;;
25127;SDS011;13107;51.304;6.866;2024-02-21T15:09:16;9.73;;;2.20;;
25127;SDS011;13107;51.304;6.866;2024-02-21T15:13:20;4.90;;;1.62;;
25127;SDS011;13107;51.304;6.866;2024-02-21T15:17:23;7.18;;;1.92;;
25127;SDS011;13107;51.304;6.866;2024-02-21T15:21:25;7.65;;;2.10;;
25127;SDS011;13107;51.304;6.866;2024-02-21T15:25:27;6.70;;;2.30;;
25127;SDS011;13107;51.304;6.866;2024-02-21T15:29:28;7.97;;;2.58;;
25127;SDS011;13107;51.304;6.866;2024-02-21T15:33:30;7.70;;;2.17;;
25127;SDS011;13107;51.304;6.866;2024-02-21T15:37:35;7.05;;;2.28;;
25127;SDS011;13107;51.304;6.866;2024-02-21T15:41:37;3.72;;;1.98;;
25127;SDS011;13107;51.304;6.866;2024-02-21T15:45:39;7.68;;;2.62;;
25127;SDS011;13107;51.304;6.866;2024-02-21T15:49:41;7.97;;;2.35;;
25127;SDS011;13107;51.304;6.866;2024-02-21T15:53:43;6.00;;;2.22;;
25127;SDS011;13107;51.304;6.866;2024-02-21T15:57:46;7.20;;;2.08;;
25127;SDS011;13107;51.304;6.866;2024-02-21T16:01:48;8.13;;;2.35;;
25127;SDS011;13107;51.304;6.866;2024-02-21T16:05:50;4.10;;;1.90;;
25127;SDS011;13107;51.304;6.866;2024-02-21T16:09:52;6.50;;;1.90;;
25127;SDS011;13107;51.304;6.866;2024-02-21T16:13:54;10.23;;;2.30;;
25127;SDS011;13107;51.304;6.866;2024-02-21T16:17:56;11.12;;;2.33;;
25127;SDS011;13107;51.304;6.866;2024-02-21T16:21:59;6.05;;;1.85;;
25127;SDS011;13107;51.304;6.866;2024-02-21T16:26:01;6.75;;;1.90;;
25127;SDS011;13107;51.304;6.866;2024-02-21T16:30:03;6.40;;;1.90;;
25127;SDS011;13107;51.304;6.866;2024-02-21T16:34:13;7.82;;;1.98;;
25127;SDS011;13107;51.304;6.866;2024-02-21T16:38:15;5.47;;;1.70;;
25127;SDS011;13107;51.304;6.866;2024-02-21T16:42:17;5.70;;;1.52;;
25127;SDS011;13107;51.304;6.866;2024-02-21T16:46:19;4.45;;;1.65;;
25127;SDS011;13107;51.304;6.866;2024-02-21T16:50:21;6.18;;;1.60;;
25127;SDS011;13107;51.304;6.866;2024-02-21T16:54:24;4.57;;;1.60;;
25127;SDS011;13107;51.304;6.866;2024-02-21T16:58:29;6.20;;;1.95;;
25127;SDS011;13107;51.304;6.866;2024-02-21T17:02:40;5.20;;;1.58;;
25127;SDS011;13107;51.304;6.866;2024-02-21T17:06:55;4.62;;;1.80;;
25127;SDS011;13107;51.304;6.866;2024-02-21T17:10:57;5.37;;;1.60;;
25127;SDS011;13107;51.304;6.866;2024-02-21T17:14:59;4.50;;;1.55;;
25127;SDS011;13107;51.304;6.866;2024-02-21T17:19:02;3.40;;;1.60;;
25127;SDS011;13107;51.304;6.866;2024-02-21T17:23:06;4.93;;;1.85;;
25127;SDS011;13107;51.304;6.866;2024-02-21T17:27:08;3.97;;;1.62;;
25127;SDS011;13107;51.304;6.866;2024-02-21T17:31:10;4.90;;;1.67;;
25127;SDS011;13107;51.304;6.866;2024-02-21T17:35:12;4.78;;;1.40;;
25127;SDS011;13107;51.304;6.866;2024-02-21T17:39:15;4.85;;;1.83;;
25127;SDS011;13107;51.304;6.866;2024-02-21T17:43:19;5.90;;;1.77;;
25127;SDS011;13107;51.304;6.866;2024-02-21T17:47:22;5.12;;;1.70;;
25127;SDS011;13107;51.304;6.866;2024-02-21T17:51:24;5.35;;;1.50;;
25127;SDS011;13107;51.304;6.866;2024-02-21T17:55:25;6.18;;;2.17;;
25127;SDS011;13107;51.304;6.866;2024-02-21T17:59:27;6.75;;;2.20;;
25127;SDS011;13107;51.304;6.866;2024-02-21T18:03:30;7.95;;;2.42;;
25127;SDS011;13107;51.304;6.866;2024-02-21T18:07:32;9.13;;;2.37;;
25127;SDS011;13107;51.304;6.866;2024-02-21T18:11:34;7.05;;;2.22;;
25127;SDS011;13107;51.304;6.866;2024-02-21T18:15:36;5.90;;;1.95;;
25127;SDS011;13107;51.304;6.866;2024-02-21T18:19:37;6.32;;;2.60;;
25127;SDS011;13107;51.304;6.866;2024-02-21T18:23:39;8.13;;;2.80;;
25127;SDS011;13107;51.304;6.866;2024-02-21T18:27:41;13.65;;;2.95;;
25127;SDS011;13107;51.304;6.866;2024-02-21T18:31:43;6.82;;;3.05;;
25127;SDS011;13107;51.304;6.866;2024-02-21T18:35:45;9.68;;;2.80;;
25127;SDS011;13107;51.304;6.866;2024-02-21T18:39:47;7.30;;;2.67;;
25127;SDS011;13107;51.304;6.866;2024-02-21T18:43:49;6.30;;;2.60;;
25127;SDS011;13107;51.304;6.866;2024-02-21T18:47:50;9.43;;;3.30;;
25127;SDS011;13107;51.304;6.866;2024-02-21T18:51:55;7.78;;;3.03;;
25127;SDS011;13107;51.304;6.866;2024-02-21T18:55:57;7.35;;;2.97;;
25127;SDS011;13107;51.304;6.866;2024-02-21T18:59:59;8.82;;;3.12;;
25127;SDS011;13107;51.304;6.866;2024-02-21T19:04:00;11.48;;;3.47;;
25127;SDS011;13107;51.304;6.866;2024-02-21T19:08:02;8.68;;;3.30;;
25127;SDS011;13107;51.304;6.866;2024-02-21T19:12:04;9.40;;;2.92;;
25127;SDS011;13107;51.304;6.866;2024-02-21T19:16:08;8.88;;;3.08;;
25127;SDS011;13107;51.304;6.866;2024-02-21T19:20:11;8.18;;;3.03;;
25127;SDS011;13107;51.304;6.866;2024-02-21T19:24:13;8.55;;;2.97;;
25127;SDS011;13107;51.304;6.866;2024-02-21T19:28:15;6.65;;;3.22;;
25127;SDS011;13107;51.304;6.866;2024-02-21T19:32:19;9.50;;;3.17;;
25127;SDS011;13107;51.304;6.866;2024-02-21T19:36:22;12.57;;;4.53;;
25127;SDS011;13107;51.304;6.866;2024-02-21T19:40:24;10.15;;;4.37;;
25127;SDS011;13107;51.304;6.866;2024-02-21T19:44:27;8.52;;;3.22;;
25127;SDS011;13107;51.304;6.866;2024-02-21T19:48:28;10.27;;;3.12;;
25127;SDS011;13107;51.304;6.866;2024-02-21T19:52:30;7.87;;;3.45;;
25127;SDS011;13107;51.304;6.866;2024-02-21T19:56:32;8.45;;;3.37;;
25127;SDS011;13107;51.304;6.866;2024-02-21T20:00:34;11.12;;;3.30;;
25127;SDS011;13107;51.304;6.866;2024-02-21T20:04:37;8.88;;;3.60;;
25127;SDS011;13107;51.304;6.866;2024-02-21T20:08:39;7.18;;;3.55;;
25127;SDS011;13107;51.304;6.866;2024-02-21T20:12:41;10.20;;;3.95;;
25127;SDS011;13107;51.304;6.866;2024-02-21T20:16:43;9.18;;;4.00;;
25127;SDS011;13107;51.304;6.866;2024-02-21T20:20:48;9.00;;;3.95;;
25127;SDS011;13107;51.304;6.866;2024-02-21T20:24:50;6.87;;;4.05;;
25127;SDS011;13107;51.304;6.866;2024-02-21T20:28:51;7.70;;;4.20;;
25127;SDS011;13107;51.304;6.866;2024-02-21T20:32:53;10.07;;;4.57;;
25127;SDS011;13107;51.304;6.866;2024-02-21T20:36:57;9.20;;;4.15;;
25127;SDS011;13107;51.304;6.866;2024-02-21T20:40:58;6.82;;;3.92;;
25127;SDS011;13107;51.304;6.866;2024-02-21T20:45:00;7.22;;;4.35;;
25127;SDS011;13107;51.304;6.866;2024-02-21T20:49:02;10.52;;;4.45;;
25127;SDS011;13107;51.304;6.866;2024-02-21T20:53:04;11.10;;;4.85;;
25127;SDS011;13107;51.304;6.866;2024-02-21T20:57:06;10.68;;;4.95;;
25127;SDS011;13107;51.304;6.866;2024-02-21T21:01:08;10.13;;;4.37;;
25127;SDS011;13107;51.304;6.866;2024-02-21T21:05:10;9.35;;;4.90;;
25127;SDS011;13107;51.304;6.866;2024-02-21T21:09:12;10.73;;;5.18;;
25127;SDS011;13107;51.304;6.866;2024-02-21T21:13:15;8.10;;;4.72;;
25127;SDS011;13107;51.304;6.866;2024-02-21T21:17:31;10.18;;;4.35;;
25127;SDS011;13107;51.304;6.866;2024-02-21T21:21:33;8.45;;;4.20;;
25127;SDS011;13107;51.304;6.866;2024-02-21T21:25:35;9.32;;;4.30;;
25127;SDS011;13107;51.304;6.866;2024-02-21T21:29:38;9.05;;;4.18;;
25127;SDS011;13107;51.304;6.866;2024-02-21T21:33:40;7.75;;;4.12;;
25127;SDS011;13107;51.304;6.866;2024-02-21T21:37:42;7.05;;;4.20;;
25127;SDS011;13107;51.304;6.866;2024-02-21T21:41:44;8.35;;;4.43;;
25127;SDS011;13107;51.304;6.866;2024-02-21T21:45:46;7.28;;;3.75;;
25127;SDS011;13107;51.304;6.866;2024-02-21T21:49:47;10.63;;;4.10;;
25127;SDS011;13107;51.304;6.866;2024-02-21T21:53:49;5.82;;;3.67;;
25127;SDS011;13107;51.304;6.866;2024-02-21T21:57:51;7.20;;;4.18;;
25127;SDS011;13107;51.304;6.866;2024-02-21T22:01:53;6.37;;;4.18;;
25127;SDS011;13107;51.304;6.866;2024-02-21T22:05:56;8.27;;;3.58;;
25127;SDS011;13107;51.304;6.866;2024-02-21T22:09:58;10.80;;;4.07;;
25127;SDS011;13107;51.304;6.866;2024-02-21T22:14:00;5.60;;;3.70;;
25127;SDS011;13107;51.304;6.866;2024-02-21T22:18:03;8.55;;;4.30;;
25127;SDS011;13107;51.304;6.866;2024-02-21T22:22:05;6.82;;;3.60;;
25127;SDS011;13107;51.304;6.866;2024-02-21T22:26:07;6.97;;;3.95;;
25127;SDS011;13107;51.304;6.866;2024-02-21T22:30:10;7.03;;;3.50;;
25127;SDS011;13107;51.304;6.866;2024-02-21T22:34:12;7.87;;;3.78;;
25127;SDS011;13107;51.304;6.866;2024-02-21T22:38:14;6.40;;;3.83;;
25127;SDS011;13107;51.304;6.866;2024-02-21T22:42:16;5.50;;;4.03;;
25127;SDS011;13107;51.304;6.866;2024-02-21T22:46:18;5.15;;;3.60;;
25127;SDS011;13107;51.304;6.866;2024-02-21T22:50:20;4.70;;;3.20;;
25127;SDS011;13107;51.304;6.866;2024-02-21T22:54:22;5.95;;;3.47;;
25127;SDS011;13107;51.304;6.866;2024-02-21T22:58:25;6.60;;;3.08;;
25127;SDS011;13107;51.304;6.866;2024-02-21T23:02:27;6.12;;;3.20;;
25127;SDS011;13107;51.304;6.866;2024-02-21T23:06:29;5.82;;;3.10;;
25127;SDS011;13107;51.304;6.866;2024-02-21T23:10:31;5.50;;;2.92;;
25127;SDS011;13107;51.304;6.866;2024-02-21T23:14:35;4.30;;;3.42;;
25127;SDS011;13107;51.304;6.866;2024-02-21T23:18:37;5.30;;;2.78;;
25127;SDS011;13107;51.304;6.866;2024-02-21T23:22:39;5.32;;;2.95;;
25127;SDS011;13107;51.304;6.866;2024-02-21T23:26:42;4.65;;;2.95;;
25127;SDS011;13107;51.304;6.866;2024-02-21T23:30:44;3.22;;;2.80;;
25127;SDS011;13107;51.304;6.866;2024-02-21T23:34:46;4.05;;;3.10;;
25127;SDS011;13107;51.304;6.866;2024-02-21T23:38:48;5.30;;;2.85;;
25127;SDS011;13107;51.304;6.866;2024-02-21T23:42:50;5.75;;;2.70;;
25127;SDS011;13107;51.304;6.866;2024-02-21T23:46:52;4.95;;;2.30;;
25127;SDS011;13107;51.304;6.866;2024-02-21T23:50:53;3.03;;;2.28;;
25127;SDS011;13107;51.304;6.866;2024-02-21T23:54:55;2.12;;;1.50;;
25127;SDS011;13107;51.304;6.866;2024-02-21T23:58:58;2.80;;;1.90;;
